Time;durP1;ratioP1;P1;durP2;ratioP2;P2;SDS_P1;SDS_P2;PMS_P1;PMS_P2;Temp;Humidity;BMP_temperature;BMP_pressure;BME280_temperature;BME280_humidity;BME280_pressure;Samples;Min_cycle;Max_cycle;Signal;HPM_P1;HPM_P2
2021/11/30 00:01:54;;;;;;;0.90;0.90;;;;;;;3.91;70.60;98695.65;102886;1317;96694;-81
2021/11/30 00:04:28;;;;;;;0.90;0.90;;;;;;;3.94;71.13;98702.21;102686;1318;138701;-81
2021/11/30 00:06:57;;;;;;;1.00;1.00;;;;;;;3.97;71.02;98697.95;102795;1319;106914;-80
2021/11/30 00:12:27;;;;;;;0.90;0.90;;;;;;;3.95;71.09;98706.07;102815;1319;96527;-81
2021/11/30 00:14:56;;;;;;;0.90;0.90;;;;;;;3.94;71.13;98708.22;102583;1321;138477;-81
2021/11/30 00:17:24;;;;;;;1.00;1.00;;;;;;;3.99;71.30;98708.58;102773;1319;107859;-80
2021/11/30 00:29:07;;;;;;;1.10;1.10;;;;;;;3.91;70.86;98726.90;102607;1318;140941;-81
2021/11/30 00:31:35;;;;;;;0.80;0.80;;;;;;;3.88;71.07;98734.86;102633;1318;109610;-81
2021/11/30 00:34:03;;;;;;;1.10;1.10;;;;;;;3.84;70.96;98739.20;102628;1318;139988;-80
2021/11/30 00:36:31;;;;;;;1.10;1.10;;;;;;;3.79;71.05;98743.88;102732;1318;97528;-80
2021/11/30 00:38:59;;;;;;;1.00;1.00;;;;;;;3.79;71.31;98749.48;102748;1318;96512;-81
2021/11/30 00:41:27;;;;;;;1.00;1.00;;;;;;;3.83;71.08;98748.16;102619;1318;139537;-79
2021/11/30 00:43:55;;;;;;;1.00;1.00;;;;;;;3.86;70.88;98751.24;102710;1318;111799;-82
2021/11/30 00:46:33;;;;;;;0.90;0.90;;;;;;;3.84;70.81;98756.19;102582;1318;141761;-80
2021/11/30 00:49:04;;;;;;;0.90;0.90;;;;;;;3.82;70.72;98764.52;102767;1319;96537;-80
2021/11/30 00:51:34;;;;;;;0.90;0.90;;;;;;;3.85;70.51;98765.13;102618;1316;140105;-80
2021/11/30 00:54:03;;;;;;;1.10;1.10;;;;;;;3.88;70.38;98769.98;102929;1317;111650;-80
2021/11/30 00:56:31;;;;;;;0.80;0.80;;;;;;;3.87;70.29;98772.64;102719;1318;96539;-82
2021/11/30 00:59:00;;;;;;;1.00;1.00;;;;;;;3.92;70.63;98772.50;102610;1317;138904;-80
2021/11/30 01:01:30;;;;;;;0.90;0.90;;;;;;;3.95;70.12;98772.44;102718;1318;109651;-80
2021/11/30 01:03:59;;;;;;;1.00;1.00;;;;;;;3.96;70.20;98780.84;102680;1317;140213;-81
2021/11/30 01:06:27;;;;;;;0.80;0.80;;;;;;;3.96;70.02;98784.36;102857;1318;96710;-81
2021/11/30 01:08:55;;;;;;;0.90;0.90;;;;;;;3.89;70.13;98787.00;102821;1316;96611;-80
2021/11/30 01:11:22;;;;;;;1.00;1.00;;;;;;;3.87;70.40;98791.60;102652;1318;141553;-81
2021/11/30 01:13:50;;;;;;;1.00;1.00;;;;;;;3.95;70.42;98790.70;102724;1318;111700;-80
2021/11/30 01:16:19;;;;;;;0.90;0.90;;;;;;;4.02;70.36;98789.65;102675;1318;138847;-80
2021/11/30 01:18:47;;;;;;;0.90;0.90;;;;;;;4.04;69.96;98789.41;102804;1318;96561;-81
2021/11/30 01:21:16;;;;;;;0.90;0.90;;;;;;;4.00;69.99;98796.89;102592;1318;141933;-80
2021/11/30 01:23:44;;;;;;;1.00;1.00;;;;;;;3.98;69.84;98796.77;102739;1318;110247;-82
2021/11/30 01:26:11;;;;;;;0.80;0.80;;;;;;;3.96;69.98;98791.70;102644;1318;96622;-82
2021/11/30 01:28:39;;;;;;;0.90;0.90;;;;;;;3.95;69.91;98800.36;102666;1318;139360;-81
2021/11/30 01:31:07;;;;;;;1.10;1.10;;;;;;;3.89;69.83;98802.26;102731;1318;109428;-81
2021/11/30 01:33:35;;;;;;;1.00;1.00;;;;;;;3.85;69.44;98804.64;102642;1318;137162;-79
2021/11/30 01:36:04;;;;;;;0.80;0.80;;;;;;;3.87;69.31;98803.02;102739;1318;97922;-80
2021/11/30 01:38:33;;;;;;;0.90;0.90;;;;;;;3.86;69.06;98805.49;102699;1321;96640;-80
2021/11/30 01:41:03;;;;;;;1.00;1.00;;;;;;;3.78;68.85;98809.72;102579;1318;138842;-80
2021/11/30 01:43:43;;;;;;;0.90;0.90;;;;;;;3.71;69.00;98810.23;102697;1318;112370;-81
2021/11/30 01:46:25;;;;;;;0.90;0.90;;;;;;;3.77;69.37;98810.27;102702;1318;140637;-80
2021/11/30 01:51:40;;;;;;;1.00;1.00;;;;;;;3.69;68.61;98813.64;102625;1318;138545;-80
2021/11/30 01:54:08;;;;;;;1.00;1.00;;;;;;;3.66;68.42;98817.20;102715;1318;110946;-80
2021/11/30 01:56:36;;;;;;;1.00;1.00;;;;;;;3.66;68.15;98819.30;102748;1318;96854;-79
2021/11/30 01:59:05;;;;;;;1.00;1.00;;;;;;;3.60;67.60;98825.23;102718;1318;138208;-80
2021/11/30 02:01:33;;;;;;;1.10;1.10;;;;;;;3.53;67.73;98826.29;102859;1318;107876;-80
2021/11/30 02:04:01;;;;;;;1.00;1.00;;;;;;;3.47;67.47;98831.69;102615;1318;139171;-77
2021/11/30 02:06:28;;;;;;;0.90;0.90;;;;;;;3.42;67.20;98826.18;102427;1318;97845;-80
2021/11/30 02:08:56;;;;;;;1.00;1.00;;;;;;;3.38;67.47;98827.52;102361;1317;97089;-80
2021/11/30 02:11:25;;;;;;;1.00;1.00;;;;;;;3.34;67.91;98821.96;102449;1319;138354;-79
2021/11/30 02:13:53;;;;;;;1.00;1.00;;;;;;;3.27;67.60;98827.74;102691;1318;111739;-80
2021/11/30 02:16:22;;;;;;;1.00;1.00;;;;;;;3.28;67.77;98827.73;102614;1318;139388;-81
2021/11/30 02:18:52;;;;;;;1.00;1.00;;;;;;;3.31;68.09;98830.45;102930;1318;96556;-80
2021/11/30 02:21:23;;;;;;;1.10;1.10;;;;;;;3.34;68.24;98833.03;102776;1318;139548;-80
2021/11/30 02:26:21;;;;;;;1.10;1.10;;;;;;;3.41;68.02;98834.11;102649;1318;96607;-81
2021/11/30 02:28:51;;;;;;;1.10;1.10;;;;;;;3.40;68.03;98832.71;102538;1321;140085;-81
2021/11/30 02:31:21;;;;;;;1.10;1.10;;;;;;;3.40;67.95;98831.85;102610;1318;110575;-80
2021/11/30 02:33:49;;;;;;;1.10;1.10;;;;;;;3.40;68.14;98831.67;102539;1318;138308;-80
2021/11/30 02:36:37;;;;;;;1.00;1.00;;;;;;;3.40;68.05;98833.43;102704;1318;97102;-80
2021/11/30 02:39:08;;;;;;;1.00;1.00;;;;;;;3.42;68.35;98836.90;102718;1317;96893;-79
2021/11/30 02:41:37;;;;;;;1.10;1.10;;;;;;;3.38;68.23;98836.27;102629;1318;139951;-80
2021/11/30 02:44:06;;;;;;;1.10;1.10;;;;;;;3.32;68.35;98835.89;102619;1318;110130;-80
2021/11/30 02:46:40;;;;;;;1.10;1.10;;;;;;;3.34;68.50;98839.85;102636;1318;139946;-81
2021/11/30 02:49:11;;;;;;;1.00;1.00;;;;;;;3.33;68.33;98839.17;102848;1318;96561;-80
2021/11/30 02:51:42;;;;;;;1.10;1.10;;;;;;;3.30;68.42;98843.98;102627;1318;138123;-80
2021/11/30 02:54:12;;;;;;;1.10;1.10;;;;;;;3.30;68.37;98845.75;102734;1318;110265;-81
2021/11/30 02:56:50;;;;;;;1.00;1.00;;;;;;;3.39;68.67;98850.48;102756;1320;96671;-80
2021/11/30 02:59:18;;;;;;;1.00;1.00;;;;;;;3.43;68.31;98853.35;102699;1316;139712;-81
2021/11/30 03:01:57;;;;;;;1.00;1.00;;;;;;;3.41;68.32;98857.95;102774;1322;109488;-80
2021/11/30 03:04:26;;;;;;;1.10;1.10;;;;;;;3.36;68.60;98859.13;102596;1318;138971;-80
2021/11/30 03:06:55;;;;;;;1.00;1.00;;;;;;;3.39;68.92;98864.86;102686;1321;96730;-79
2021/11/30 03:09:23;;;;;;;1.00;1.00;;;;;;;3.31;68.53;98863.61;102644;1319;140571;-79
2021/11/30 03:11:52;;;;;;;0.90;0.90;;;;;;;3.26;68.54;98866.54;102850;1318;106890;-80
2021/11/30 03:14:21;;;;;;;1.10;1.10;;;;;;;3.21;69.02;98868.92;102826;1318;109805;-82
2021/11/30 03:16:50;;;;;;;1.00;1.00;;;;;;;3.24;68.92;98868.33;102628;1318;140861;-81
2021/11/30 03:19:17;;;;;;;1.00;1.00;;;;;;;3.30;68.95;98865.05;102657;1318;96996;-81
2021/11/30 03:21:47;;;;;;;1.00;1.00;;;;;;;3.32;68.91;98866.40;102728;1318;139387;-80
2021/11/30 03:24:15;;;;;;;1.00;1.00;;;;;;;3.27;68.99;98872.11;102778;1318;111067;-81
2021/11/30 03:26:43;;;;;;;1.10;1.10;;;;;;;3.26;69.06;98881.62;102683;1320;96639;-81
2021/11/30 03:29:11;;;;;;;1.10;1.10;;;;;;;3.22;69.20;98885.73;102645;1318;138874;-79
2021/11/30 03:34:17;;;;;;;1.00;1.00;;;;;;;3.16;69.19;98892.86;102688;1318;138871;-81
2021/11/30 03:36:47;;;;;;;1.00;1.00;;;;;;;3.15;69.25;98893.40;102700;1318;97215;-80
2021/11/30 03:39:18;;;;;;;1.10;1.10;;;;;;;3.15;69.10;98894.11;102592;1318;140005;-80
2021/11/30 03:41:47;;;;;;;1.00;1.00;;;;;;;3.15;68.83;98892.02;102660;1318;107974;-80
2021/11/30 03:44:15;;;;;;;1.00;1.00;;;;;;;3.13;68.77;98888.36;102765;1318;111089;-80
2021/11/30 03:46:44;;;;;;;1.10;1.10;;;;;;;3.14;68.58;98891.48;102695;1318;139825;-80
2021/11/30 03:49:12;;;;;;;1.00;1.00;;;;;;;3.18;68.85;98895.45;102769;1318;96554;-79
2021/11/30 03:51:41;;;;;;;1.00;1.00;;;;;;;3.17;67.94;98895.31;102583;1318;138511;-79
2021/11/30 03:54:09;;;;;;;1.00;1.00;;;;;;;3.14;68.01;98897.45;102738;1318;111148;-79
2021/11/30 03:56:38;;;;;;;0.90;0.90;;;;;;;3.12;67.67;98894.18;102387;1318;96663;-80
2021/11/30 03:59:07;;;;;;;1.10;1.10;;;;;;;3.10;67.62;98890.70;102763;1318;138866;-80
2021/11/30 04:01:35;;;;;;;1.10;1.10;;;;;;;3.06;67.47;98893.43;102379;1318;109439;-79
2021/11/30 04:04:21;;;;;;;1.10;1.10;;;;;;;3.01;67.10;98899.84;102475;1318;139071;-80
2021/11/30 04:06:54;;;;;;;1.00;1.00;;;;;;;3.00;67.04;98897.23;102849;1318;96645;-80
2021/11/30 04:09:24;;;;;;;1.00;1.00;;;;;;;2.96;66.69;98898.52;102671;1317;138234;-80
2021/11/30 04:11:52;;;;;;;1.10;1.10;;;;;;;2.92;66.63;98902.64;102803;1319;107890;-79
2021/11/30 04:14:26;;;;;;;1.00;1.00;;;;;;;2.89;66.31;98898.49;102774;1318;111132;-80
2021/11/30 04:16:54;;;;;;;1.20;1.20;;;;;;;2.91;66.34;98897.94;102824;1318;138631;-80
2021/11/30 04:19:22;;;;;;;1.00;1.00;;;;;;;2.90;66.15;98895.31;102777;1317;96641;-80
2021/11/30 04:21:50;;;;;;;1.10;1.10;;;;;;;2.92;66.19;98900.89;102573;1317;139421;-80
2021/11/30 04:24:18;;;;;;;1.00;1.00;;;;;;;2.92;66.07;98896.33;102668;1319;111726;-80
2021/11/30 04:26:46;;;;;;;1.10;1.10;;;;;;;2.93;66.10;98903.48;102744;1318;96547;-81
2021/11/30 04:29:13;;;;;;;1.10;1.10;;;;;;;2.96;66.04;98903.27;102602;1319;139063;-80
2021/11/30 04:31:41;;;;;;;1.10;1.10;;;;;;;2.94;66.29;98900.15;102656;1318;110092;-81
2021/11/30 04:34:09;;;;;;;1.10;1.10;;;;;;;2.94;66.58;98907.14;102701;1316;140627;-81
2021/11/30 04:36:37;;;;;;;1.10;1.10;;;;;;;2.96;66.65;98906.25;102719;1322;96989;-80
2021/11/30 04:39:06;;;;;;;1.10;1.10;;;;;;;2.96;66.80;98907.99;102808;1317;96544;-81
2021/11/30 04:41:34;;;;;;;1.20;1.20;;;;;;;2.94;66.84;98912.76;102610;1319;139340;-82
2021/11/30 04:44:03;;;;;;;1.10;1.10;;;;;;;2.96;67.04;98911.32;102783;1318;112655;-81
2021/11/30 04:46:41;;;;;;;1.10;1.10;;;;;;;3.01;66.89;98915.61;102701;1319;138256;-81
2021/11/30 04:49:26;;;;;;;1.20;1.20;;;;;;;2.99;66.72;98915.13;102747;1322;96584;-81
2021/11/30 04:51:54;;;;;;;1.10;1.10;;;;;;;2.93;67.22;98918.91;102669;1320;137907;-81
2021/11/30 04:54:22;;;;;;;1.10;1.10;;;;;;;2.95;67.28;98917.64;102635;1319;112120;-80
2021/11/30 04:56:51;;;;;;;1.10;1.10;;;;;;;2.99;67.08;98914.77;102815;1317;96633;-80
2021/11/30 04:59:20;;;;;;;1.20;1.20;;;;;;;2.96;66.78;98915.73;102682;1320;138540;-81
2021/11/30 05:01:49;;;;;;;1.00;1.00;;;;;;;2.94;66.84;98916.98;102675;1319;108564;-81
2021/11/30 05:04:17;;;;;;;1.00;1.00;;;;;;;2.90;66.89;98920.91;102707;1320;139981;-80
2021/11/30 05:06:45;;;;;;;1.00;1.00;;;;;;;2.90;67.04;98923.55;102782;1318;97124;-80
2021/11/30 05:09:13;;;;;;;1.00;1.00;;;;;;;2.90;67.12;98926.88;102647;1318;140581;-81
2021/11/30 05:11:40;;;;;;;1.10;1.10;;;;;;;2.81;66.99;98927.55;102729;1318;108693;-80
2021/11/30 05:14:08;;;;;;;1.10;1.10;;;;;;;2.78;67.34;98930.95;102740;1320;111379;-80
2021/11/30 05:16:36;;;;;;;1.10;1.10;;;;;;;2.81;67.58;98931.77;102546;1318;139059;-80
2021/11/30 05:19:05;;;;;;;1.10;1.10;;;;;;;2.86;67.64;98929.94;102599;1318;96676;-81
2021/11/30 05:21:33;;;;;;;1.10;1.10;;;;;;;2.90;67.59;98934.59;102505;1318;138889;-81
2021/11/30 05:24:06;;;;;;;1.10;1.10;;;;;;;2.86;67.28;98941.85;102602;1317;110956;-81
2021/11/30 05:26:34;;;;;;;0.90;0.90;;;;;;;2.83;67.36;98938.05;102546;1317;97175;-79
2021/11/30 05:29:04;;;;;;;1.00;1.00;;;;;;;2.82;66.91;98943.31;102508;1317;138821;-81
2021/11/30 05:31:32;;;;;;;1.00;1.00;;;;;;;2.76;66.94;98940.96;102562;1320;109031;-82
2021/11/30 05:34:00;;;;;;;1.20;1.20;;;;;;;2.72;67.00;98941.04;102389;1318;140128;-80
2021/11/30 05:36:32;;;;;;;1.20;1.20;;;;;;;2.77;67.38;98940.59;102563;1319;96589;-80
2021/11/30 05:39:01;;;;;;;1.10;1.10;;;;;;;2.82;67.21;98939.09;102727;1324;97902;-80
2021/11/30 05:41:28;;;;;;;1.10;1.10;;;;;;;2.87;67.14;98941.48;102647;1319;137141;-80
2021/11/30 05:43:56;;;;;;;1.20;1.20;;;;;;;2.88;67.12;98941.80;102598;1324;110872;-80
2021/11/30 05:46:24;;;;;;;1.10;1.10;;;;;;;2.90;66.87;98949.83;102650;1317;141229;-80
2021/11/30 05:48:52;;;;;;;1.20;1.20;;;;;;;2.92;66.58;98945.58;102631;1317;96563;-81
2021/11/30 05:51:20;;;;;;;1.10;1.10;;;;;;;2.94;66.88;98947.29;102424;1320;141233;-80
2021/11/30 05:53:50;;;;;;;1.30;1.30;;;;;;;2.86;66.66;98944.64;102568;1318;112409;-81
2021/11/30 05:56:18;;;;;;;1.10;1.10;;;;;;;2.84;67.25;98946.44;102742;1319;96554;-80
2021/11/30 05:58:46;;;;;;;1.10;1.10;;;;;;;2.86;67.33;98945.52;102363;1319;142108;-80
2021/11/30 06:06:19;;;;;;;1.20;1.20;;;;;;;2.70;67.31;98945.12;102359;1319;96919;-80
2021/11/30 06:08:46;;;;;;;1.10;1.10;;;;;;;2.79;67.42;98946.52;102285;1323;97688;-82
2021/11/30 06:11:14;;;;;;;1.20;1.20;;;;;;;2.79;67.09;98947.04;102156;1318;139985;-81
2021/11/30 06:13:42;;;;;;;1.20;1.20;;;;;;;2.78;67.14;98947.41;102474;1323;109787;-82
2021/11/30 06:16:10;;;;;;;1.20;1.20;;;;;;;2.82;66.98;98948.22;102423;1320;140146;-81
2021/11/30 06:18:38;;;;;;;1.10;1.10;;;;;;;2.92;66.89;98947.86;102740;1320;96538;-81
2021/11/30 06:21:06;;;;;;;1.10;1.10;;;;;;;2.92;66.73;98945.95;102616;1319;107800;-80
2021/11/30 06:23:34;;;;;;;1.30;1.30;;;;;;;2.91;66.57;98947.02;103960;1322;138492;-81
2021/11/30 06:26:07;;;;;;;1.10;1.10;;;;;;;2.90;66.92;98947.38;102640;1319;96518;-84
2021/11/30 06:28:35;;;;;;;1.20;1.20;;;;;;;2.98;66.57;98945.64;102391;1319;140812;-81
2021/11/30 06:31:04;;;;;;;1.10;1.10;;;;;;;3.04;66.61;98947.81;102460;1320;108837;-82
2021/11/30 06:33:33;;;;;;;1.10;1.10;;;;;;;3.02;66.25;98944.36;102502;1321;139462;-83
2021/11/30 06:36:01;;;;;;;1.20;1.20;;;;;;;2.92;66.33;98946.10;102541;1320;96864;-83
2021/11/30 06:38:29;;;;;;;1.20;1.20;;;;;;;2.90;67.00;98946.14;102486;1319;97043;-84
2021/11/30 06:40:56;;;;;;;1.10;1.10;;;;;;;2.94;66.88;98946.25;102404;1318;138688;-83
2021/11/30 06:43:24;;;;;;;1.10;1.10;;;;;;;2.94;66.80;98946.24;102606;1319;111673;-82
2021/11/30 06:45:53;;;;;;;1.10;1.10;;;;;;;2.97;67.04;98945.83;102558;1322;139375;-82
2021/11/30 06:48:21;;;;;;;1.10;1.10;;;;;;;3.03;67.03;98945.90;102733;1318;96584;-82
2021/11/30 06:50:49;;;;;;;1.30;1.30;;;;;;;3.09;67.05;98942.09;102819;1318;109537;-82
2021/11/30 06:53:18;;;;;;;1.20;1.20;;;;;;;3.10;66.47;98944.38;102801;1318;138482;-80
2021/11/30 06:55:46;;;;;;;1.20;1.20;;;;;;;3.08;66.70;98941.08;102941;1319;96559;-82
2021/11/30 06:58:13;;;;;;;1.20;1.20;;;;;;;3.01;66.83;98945.59;102711;1317;138522;-81
2021/11/30 07:00:42;;;;;;;1.10;1.10;;;;;;;3.01;67.06;98945.41;102806;1320;109297;-81
2021/11/30 07:03:10;;;;;;;1.10;1.10;;;;;;;3.08;67.39;98942.65;102870;1318;110106;-81
2021/11/30 07:05:41;;;;;;;1.20;1.20;;;;;;;3.16;67.08;98939.34;102700;1320;138431;-80
2021/11/30 07:08:15;;;;;;;1.10;1.10;;;;;;;3.11;67.10;98935.05;102816;1323;96627;-81
2021/11/30 07:10:52;;;;;;;1.10;1.10;;;;;;;3.11;67.40;98930.84;102735;1318;138717;-80
2021/11/30 07:15:57;;;;;;;1.10;1.10;;;;;;;3.15;67.23;98923.59;102654;1320;137592;-79
2021/11/30 07:18:26;;;;;;;1.20;1.20;;;;;;;3.11;67.28;98922.42;102730;1319;96671;-82
2021/11/30 07:20:55;;;;;;;1.10;1.10;;;;;;;3.17;67.55;98920.39;102740;1318;109592;-81
2021/11/30 07:23:24;;;;;;;1.10;1.10;;;;;;;3.19;67.21;98923.31;102602;1319;141942;-79
2021/11/30 07:25:53;;;;;;;1.20;1.20;;;;;;;3.16;67.62;98919.86;102725;1319;96585;-80
2021/11/30 07:28:31;;;;;;;1.10;1.10;;;;;;;3.16;67.43;98910.77;102633;1319;138477;-81
2021/11/30 07:31:03;;;;;;;1.00;1.00;;;;;;;3.18;67.78;98913.16;102821;1318;108908;-80
2021/11/30 07:33:33;;;;;;;1.30;1.30;;;;;;;3.21;67.63;98914.68;102635;1318;140187;-81
2021/11/30 07:36:02;;;;;;;1.00;1.00;;;;;;;3.17;67.54;98910.21;102719;1320;97968;-80
2021/11/30 07:38:30;;;;;;;1.10;1.10;;;;;;;3.08;67.67;98906.54;102685;1319;97189;-80
2021/11/30 07:40:58;;;;;;;1.10;1.10;;;;;;;3.00;68.18;98904.59;102700;1317;139992;-80
2021/11/30 07:43:27;;;;;;;1.10;1.10;;;;;;;2.99;68.78;98902.52;102791;1319;111653;-80
2021/11/30 07:45:54;;;;;;;1.20;1.20;;;;;;;2.95;69.34;98904.86;102661;1318;140750;-81
2021/11/30 07:48:23;;;;;;;1.20;1.20;;;;;;;2.85;69.84;98898.91;102746;1318;96635;-82
2021/11/30 07:50:51;;;;;;;1.20;1.20;;;;;;;2.96;69.95;98893.27;102773;1318;109512;-80
2021/11/30 07:53:19;;;;;;;1.10;1.10;;;;;;;3.07;69.79;98893.04;102617;1319;139916;-82
2021/11/30 07:55:48;;;;;;;1.10;1.10;;;;;;;3.08;69.21;98889.35;102787;1319;96556;-82
2021/11/30 07:58:16;;;;;;;1.20;1.20;;;;;;;3.07;69.46;98886.39;102624;1318;138832;-82
2021/11/30 08:00:45;;;;;;;1.10;1.10;;;;;;;3.03;69.43;98882.09;102694;1318;109560;-81
2021/11/30 08:03:13;;;;;;;1.00;1.00;;;;;;;3.05;69.70;98873.98;102882;1318;112378;-81
2021/11/30 08:05:42;;;;;;;1.00;1.00;;;;;;;3.14;69.17;98868.35;102601;1317;148303;-81
2021/11/30 08:08:10;;;;;;;1.00;1.00;;;;;;;3.12;69.00;98866.63;102780;1323;97616;-80
2021/11/30 08:10:38;;;;;;;1.10;1.10;;;;;;;3.11;69.33;98863.86;102589;1322;139381;-80
2021/11/30 08:13:05;;;;;;;1.00;1.00;;;;;;;3.18;69.00;98855.48;102695;1317;113963;-81
2021/11/30 08:15:34;;;;;;;1.00;1.00;;;;;;;3.28;68.99;98848.95;102724;1318;140389;-79
2021/11/30 08:18:04;;;;;;;1.10;1.10;;;;;;;3.33;68.38;98849.02;102694;1323;96635;-81
2021/11/30 08:20:32;;;;;;;1.20;1.20;;;;;;;3.33;68.21;98843.92;102798;1319;108391;-82
2021/11/30 08:23:00;;;;;;;1.30;1.30;;;;;;;3.28;68.06;98838.96;102601;1323;139859;-81
2021/11/30 08:25:28;;;;;;;1.00;1.00;;;;;;;3.26;67.86;98836.02;102728;1318;97311;-81
2021/11/30 08:27:56;;;;;;;1.10;1.10;;;;;;;3.19;67.71;98834.94;102336;1318;139511;-79
2021/11/30 08:30:45;;;;;;;1.10;1.10;;;;;;;3.27;67.76;98828.80;102277;1318;110061;-79
2021/11/30 08:33:15;;;;;;;1.20;1.20;;;;;;;3.30;67.36;98824.17;102538;1317;111523;-79
2021/11/30 08:35:44;;;;;;;1.10;1.10;;;;;;;3.34;67.12;98818.64;102567;1318;140466;-79
2021/11/30 08:38:12;;;;;;;1.10;1.10;;;;;;;3.33;66.47;98819.54;102459;1318;96916;-78
2021/11/30 08:40:40;;;;;;;1.10;1.10;;;;;;;3.29;66.77;98816.13;102095;1317;138846;-78
2021/11/30 08:43:08;;;;;;;1.20;1.20;;;;;;;3.30;66.42;98812.76;102270;1320;111638;-81
2021/11/30 08:45:36;;;;;;;1.10;1.10;;;;;;;3.31;66.26;98805.90;102181;1318;141072;-79
2021/11/30 08:48:04;;;;;;;1.20;1.20;;;;;;;3.37;65.71;98801.21;102369;1320;96673;-80
2021/11/30 08:50:33;;;;;;;1.10;1.10;;;;;;;3.49;65.36;98798.32;102716;1318;109408;-80
2021/11/30 08:53:00;;;;;;;1.10;1.10;;;;;;;3.58;64.82;98792.14;102531;1318;138159;-79
2021/11/30 08:55:28;;;;;;;1.00;1.00;;;;;;;3.60;63.97;98789.26;102579;1320;97855;-78
2021/11/30 08:58:01;;;;;;;1.00;1.00;;;;;;;3.78;64.16;98779.00;102316;1314;140954;-79
2021/11/30 09:00:30;;;;;;;1.00;1.00;;;;;;;3.97;63.83;98776.60;102371;1317;108749;-80
2021/11/30 09:02:58;;;;;;;1.10;1.10;;;;;;;4.05;62.83;98768.48;102662;1318;111312;-78
2021/11/30 09:05:27;;;;;;;1.10;1.10;;;;;;;4.01;62.31;98767.53;102246;1318;139800;-79
2021/11/30 09:07:56;;;;;;;1.00;1.00;;;;;;;4.25;61.72;98761.97;102274;1316;97857;-79
2021/11/30 09:10:25;;;;;;;0.90;0.90;;;;;;;4.50;60.51;98756.77;102218;1318;138018;-79
2021/11/30 09:12:54;;;;;;;1.00;1.00;;;;;;;4.42;60.14;98756.80;102317;1318;111882;-79
2021/11/30 09:15:22;;;;;;;0.90;0.90;;;;;;;4.81;59.11;98754.26;102369;1317;96744;-79
2021/11/30 09:17:54;;;;;;;0.80;0.80;;;;;;;4.95;58.10;98747.02;102182;1318;139408;-79
2021/11/30 09:20:23;;;;;;;1.00;1.00;;;;;;;4.67;59.13;98737.80;102670;1317;108384;-79
2021/11/30 09:22:52;;;;;;;0.80;0.80;;;;;;;4.76;58.76;98734.53;102359;1317;139630;-79
2021/11/30 09:25:22;;;;;;;0.80;0.80;;;;;;;4.65;58.26;98731.17;102391;1320;96671;-79
2021/11/30 09:27:50;;;;;;;0.80;0.80;;;;;;;4.45;59.21;98732.44;102098;1320;139726;-78
2021/11/30 09:30:20;;;;;;;0.80;0.80;;;;;;;4.27;58.95;98730.15;102274;1318;109855;-78
2021/11/30 09:32:49;;;;;;;0.90;0.90;;;;;;;4.04;59.97;98723.36;102136;1318;111630;-79
2021/11/30 09:35:20;;;;;;;1.10;1.10;;;;;;;3.97;60.75;98716.02;102183;1318;139024;-78
2021/11/30 09:37:51;;;;;;;1.10;1.10;;;;;;;3.95;60.84;98710.10;102267;1321;96701;-80
2021/11/30 09:40:22;;;;;;;1.00;1.00;;;;;;;3.95;60.86;98701.16;102174;1318;140334;-77
2021/11/30 09:43:10;;;;;;;0.90;0.90;;;;;;;3.86;59.70;98694.54;102391;1314;110144;-79
2021/11/30 09:45:40;;;;;;;1.00;1.00;;;;;;;3.75;60.27;98691.84;102311;1318;138049;-80
2021/11/30 09:48:11;;;;;;;1.10;1.10;;;;;;;3.77;60.56;98696.90;102234;1318;96620;-80
2021/11/30 09:50:42;;;;;;;1.00;1.00;;;;;;;3.69;60.23;98690.41;102189;1317;109304;-79
2021/11/30 09:53:11;;;;;;;1.00;1.00;;;;;;;3.67;60.13;98683.44;102108;1318;139335;-78
2021/11/30 09:55:39;;;;;;;1.00;1.00;;;;;;;3.63;60.69;98678.80;102189;1318;97043;-77
2021/11/30 09:58:08;;;;;;;1.00;1.00;;;;;;;3.54;60.06;98672.73;102188;1314;138753;-80
2021/11/30 10:00:37;;;;;;;1.10;1.10;;;;;;;3.42;60.17;98669.69;102342;1318;109394;-78
2021/11/30 10:03:08;;;;;;;1.10;1.10;;;;;;;3.33;60.68;98667.11;102324;1318;111704;-78
2021/11/30 10:05:37;;;;;;;1.10;1.10;;;;;;;3.36;61.15;98661.23;102302;1318;141041;-79
2021/11/30 10:08:06;;;;;;;1.10;1.10;;;;;;;3.47;61.72;98653.08;102669;1317;96575;-74
2021/11/30 10:10:38;;;;;;;1.10;1.10;;;;;;;3.53;60.98;98651.34;102224;1318;137587;-79
2021/11/30 10:13:06;;;;;;;1.00;1.00;;;;;;;3.49;61.13;98646.19;102444;1318;111191;-79
2021/11/30 10:15:46;;;;;;;1.10;1.10;;;;;;;3.47;61.17;98638.16;102359;1319;139083;-79
2021/11/30 10:18:18;;;;;;;1.30;1.30;;;;;;;3.31;61.82;98633.46;102726;1316;96715;-80
2021/11/30 10:20:48;;;;;;;1.10;1.10;;;;;;;3.31;62.46;98635.77;102663;1318;107481;-79
2021/11/30 10:23:17;;;;;;;1.10;1.10;;;;;;;3.28;63.10;98624.95;102606;1318;140127;-80
2021/11/30 10:25:48;;;;;;;1.10;1.10;;;;;;;3.29;63.72;98620.89;102669;1318;96643;-79
2021/11/30 10:28:20;;;;;;;1.00;1.00;;;;;;;3.23;64.10;98616.51;102620;1319;139699;-79
2021/11/30 10:30:51;;;;;;;0.90;0.90;;;;;;;3.19;64.77;98610.27;102732;1318;109041;-79
2021/11/30 10:33:22;;;;;;;1.00;1.00;;;;;;;3.14;65.08;98602.85;102798;1318;111765;-78
2021/11/30 10:35:53;;;;;;;1.00;1.00;;;;;;;3.18;65.68;98598.56;102307;1321;138186;-81
2021/11/30 10:38:38;;;;;;;1.10;1.10;;;;;;;3.15;65.85;98591.63;102335;1318;96908;-80
2021/11/30 10:41:23;;;;;;;1.00;1.00;;;;;;;3.17;65.76;98586.29;102561;1318;139651;-79
2021/11/30 10:43:56;;;;;;;1.00;1.00;;;;;;;3.22;65.79;98581.42;102305;1318;111878;-79
2021/11/30 10:46:35;;;;;;;1.00;1.00;;;;;;;3.22;65.44;98576.72;102265;1318;138905;-78
2021/11/30 10:49:04;;;;;;;1.10;1.10;;;;;;;3.17;65.82;98566.66;102315;1318;96916;-77
2021/11/30 10:51:44;;;;;;;1.00;1.00;;;;;;;3.14;66.18;98561.98;101971;1318;140135;-79
2021/11/30 10:54:13;;;;;;;1.00;1.00;;;;;;;3.22;66.86;98556.54;102104;1318;111848;-79
2021/11/30 10:56:41;;;;;;;1.00;1.00;;;;;;;3.24;66.86;98553.16;102523;1318;96566;-78
2021/11/30 10:59:20;;;;;;;1.10;1.10;;;;;;;3.23;67.26;98544.61;102088;1318;140257;-79
2021/11/30 11:01:48;;;;;;;1.00;1.00;;;;;;;3.23;67.36;98535.48;102343;1318;107762;-80
2021/11/30 11:04:18;;;;;;;1.10;1.10;;;;;;;3.27;67.80;98526.41;102026;1318;138469;-78
2021/11/30 11:07:08;;;;;;;1.00;1.00;;;;;;;3.31;67.99;98519.64;102204;1321;97109;-79
2021/11/30 11:09:49;;;;;;;1.00;1.00;;;;;;;3.28;68.06;98509.21;102231;1318;139651;-81
2021/11/30 11:12:28;;;;;;;1.00;1.00;;;;;;;3.29;68.26;98507.42;102234;1318;109621;-79
2021/11/30 11:14:59;;;;;;;1.00;1.00;;;;;;;3.35;68.33;98503.73;102274;1318;110260;-79
2021/11/30 11:17:32;;;;;;;1.00;1.00;;;;;;;3.27;68.37;98492.74;102248;1319;139922;-79
2021/11/30 11:20:01;;;;;;;1.00;1.00;;;;;;;3.22;68.82;98485.69;102316;1318;96648;-81
2021/11/30 11:22:30;;;;;;;1.10;1.10;;;;;;;3.25;69.34;98475.42;102208;1318;140138;-79
2021/11/30 11:25:02;;;;;;;1.00;1.00;;;;;;;3.27;69.31;98467.48;102326;1318;111067;-78
2021/11/30 11:27:39;;;;;;;0.90;0.90;;;;;;;3.30;69.32;98459.67;102292;1320;139844;-80
2021/11/30 11:30:11;;;;;;;1.00;1.00;;;;;;;3.17;69.66;98450.56;102515;1316;96910;-78
2021/11/30 11:32:39;;;;;;;1.00;1.00;;;;;;;3.14;70.04;98441.55;102640;1318;109472;-79
2021/11/30 11:35:07;;;;;;;0.90;0.90;;;;;;;3.13;70.26;98433.14;102549;1318;139698;-78
2021/11/30 11:37:35;;;;;;;1.10;1.10;;;;;;;3.19;70.28;98427.39;102380;1318;96425;-79
2021/11/30 11:40:04;;;;;;;1.00;1.00;;;;;;;3.28;70.29;98418.70;102241;1318;139834;-80
2021/11/30 11:42:32;;;;;;;1.00;1.00;;;;;;;3.34;70.25;98412.20;102330;1318;106179;-80
2021/11/30 11:44:59;;;;;;;1.00;1.00;;;;;;;3.37;70.24;98405.81;102316;1318;110557;-79
2021/11/30 11:47:27;;;;;;;0.90;0.90;;;;;;;3.40;70.34;98402.58;102302;1318;138878;-79
2021/11/30 11:49:56;;;;;;;0.90;0.90;;;;;;;3.50;70.00;98393.68;102290;1319;96683;-79
2021/11/30 11:52:27;;;;;;;1.00;1.00;;;;;;;3.50;69.98;98389.64;102287;1318;141183;-81
2021/11/30 11:55:11;;;;;;;0.90;0.90;;;;;;;3.45;70.01;98373.66;102848;1318;109416;-79
2021/11/30 11:57:40;;;;;;;0.90;0.90;;;;;;;3.44;70.31;98370.35;102651;1318;139898;-79
2021/11/30 12:00:17;;;;;;;1.20;1.20;;;;;;;3.46;70.28;98362.73;102836;1318;97054;-79
2021/11/30 12:02:49;;;;;;;0.90;0.90;;;;;;;3.51;70.30;98349.42;102738;1318;110133;-79
2021/11/30 12:05:17;;;;;;;1.00;1.00;;;;;;;3.51;70.09;98340.48;102642;1318;138152;-80
2021/11/30 12:08:01;;;;;;;0.90;0.90;;;;;;;3.46;70.05;98329.95;102736;1316;96650;-79